Loging...

KPDC, Korea Polar Data Center

Korea Polar Data Center Scientific observations and results from Antarctica shall
be exchanged and made freely available

Keyword Search

Advanced Search

Search 29,208 data out of 29,208

Metadata Search Results1
No. Title Reg. Date
301 [KOPRI-KPDC-00001522]SB171122-4A (rock sampling) 2021-10-08
302 [KOPRI-KPDC-00001521]SB171122-4B (rock sampling) 2021-10-08
303 [KOPRI-KPDC-00001520]SB171122-4C (rock sampling) 2021-10-08
304 [KOPRI-KPDC-00001519]SB171122-1A (rock sampling) 2021-10-08
305 [KOPRI-KPDC-00001518]Metagenome and Metatranscriptome data from Alaska permafrost soil 2021-10-08
306 [KOPRI-KPDC-00001517]Bacterial community 16S rRNA gene NGS data from Barton Peninsula in King George Island, 2016 2021-10-08
307 [KOPRI-KPDC-00001513]Soil physical and chemical data from Alaska permafrost soil 2021-10-08
308 [KOPRI-KPDC-00001512]2019/20 season Korean Route Traverse based GPS GIS data 2021-10-08
309 [KOPRI-KPDC-00001511]Bacterial NGS data from Barton and Weaver peninsula in King George Island at 2019 2021-10-08
310 [KOPRI-KPDC-00001510]Snow cover map of the Barton Peninsula, King George Island, Antarctica 2021-10-08
311 [KOPRI-KPDC-00001498]Air temperature, air humidity, PAR, substrate temperature, and substrate humidity data from Barton Peninsular in King George Island collected in 2019 2021-10-08
312 [KOPRI-KPDC-00001497]Lichen samples from King George Island collected in 2020 2021-10-08
313 [KOPRI-KPDC-00001496]SHRIMP U-Pb age data for the Mt. Murchison migmatitic gneiss (four samples) from the Mountaineer Range, northern Victoria Land, Antarctica 2021-10-08
314 [KOPRI-KPDC-00001495]Metamorphic pressure (P)-temperature (T) condition of the Dessent Ridge amphibolite from the Mountaineer Range, northern Victoria Land, Antarctica 2021-10-08
315 [KOPRI-KPDC-00001484]Seismic data (ARA05C-L05 and L17 lines, segy format) and related inverted models (binary files) for Imaging the P-wave velocity structure of Arctic subsea permafrost 2021-10-08
316 [KOPRI-KPDC-00001470]Multispectral satellite image and digital surface model for Council, AK 2021-10-08
317 [KOPRI-KPDC-00001468]Satellite SAR data-based sea ice drift vectors in Fram Strait (2019) 2021-10-08
318 [KOPRI-KPDC-00001467]Satellite SAR data-based sea ice types in Fram Strait (2019) 2021-10-08
319 [KOPRI-KPDC-00001458]Ice mass balance buoy measured GPS locations and surface temperatures of a drifting sea ice floe for the Arctic sea ice station in 2016 (ARA07B) 2021-10-08
320 [KOPRI-KPDC-00001457]Ship-borne meteorological data over the Arctic Ocean in the summer of 2016 (ARA07B, ARA07C) 2021-10-08
321 [KOPRI-KPDC-00001450]discharge water quality 2021-10-08
322 [KOPRI-KPDC-00001683]Dissolved organic carbon and nitrogen in the Marian Cove and the Maxwell Bay, Antarctica 2021-10-08
323 [KOPRI-KPDC-00001681]Distribution of dissolved inorganic nutrients in the Marian Cove and the Maxwell Bay, Antarctica 2021-10-08
324 [KOPRI-KPDC-00001413]NDVI data collected from climate manipulation plots in Cambridge Bay, Canada in 2019 2021-10-08
325 [KOPRI-KPDC-00001290]Atmospheric ion species measured from Storhofdi, Iceland in 2017 2021-10-08
326 [KOPRI-KPDC-00001221]KPDC MAXDOAS For Halogen gases at KSJ 2018-2019 2021-10-08
327 [KOPRI-KPDC-00001255]Oxygen isotope data collected in the Amundsen Sea during the austral summer of 2018 2021-10-08
328 [KOPRI-KPDC-00001161]KPSN Seismic Data at Victoria Land, Antarctic 2016 2021-10-08
329 [KOPRI-KPDC-00001861]Trace elements and Pb isotopes in Greenland ice core 2021-10-08
330 [KOPRI-KPDC-00001185]RS19-GC10 2021-10-06
331 [KOPRI-KPDC-00001843]Biogeochemical data from David glacier_2021 2021-10-06
332 [KOPRI-KVH-00002645]Phyllophora antarctica A.Gepp & E.S.Gepp 1905 (KOPRI-CH3904) 2021-10-05
333 [KOPRI-KVH-00002647]Phyllophora antarctica A.Gepp & E.S.Gepp 1905 (KOPRI-CH3905) 2021-10-05
334 [KOPRI-KVH-00002649]Phyllophora antarctica A.Gepp & E.S.Gepp 1905 (KOPRI-CH3906) 2021-10-05
335 [KOPRI-KVH-00002651]Phyllophora antarctica A.Gepp & E.S.Gepp 1905 (KOPRI-CH3907) 2021-10-05
336 [KOPRI-KVH-00002653]Phyllophora antarctica A.Gepp & E.S.Gepp 1905 (KOPRI-CH3908) 2021-10-05
337 [KOPRI-KVH-00002655]Phyllophora antarctica A.Gepp & E.S.Gepp 1905 (KOPRI-CH3909) 2021-10-05
338 [KOPRI-KVH-00002657]Phyllophora antarctica A.Gepp & E.S.Gepp 1905 (KOPRI-CH3910) 2021-10-05
339 [KOPRI-KVH-00002663]Phyllophora antarctica A.Gepp & E.S.Gepp 1905 (KOPRI-CH3913) 2021-10-05
340 [KOPRI-KVH-00002664]Phyllophora antarctica A.Gepp & E.S.Gepp 1905 (KOPRI-CH3902) 2021-10-05
341 [KOPRI-KVH-00002665]Phyllophora antarctica A.Gepp & E.S.Gepp 1905 (KOPRI-CH3903) 2021-10-05
342 [KOPRI-KVH-00002680]Iridaea cordata (Turner) Bory de Saint-Vincent (KOPRI-CH3928) 2021-10-05
343 [KOPRI-KPDC-00001838]RS19-GC14 2021-10-05
344 [KOPRI-KPDC-00001837]Doppler wind lidar data at DASAN Station in 2021 2021-10-05
345 [KOPRI-KPDC-00001834]Cloud droplet data at DASAN Station in 2021 2021-10-05
346 [KOPRI-KPDC-00001829]Bacterial community 16S rRNA gene NGS data_microcosm incubation of tundra soil, Seward Peninsula in Alaska 2021-10-05
347 [KOPRI-KPDC-00001828]Bacterial community 16S rRNA gene NGS data_microcosm incubation of tundra soil, Barton Peninsula in King George Island 2021-10-05
348 [KOPRI-KPDC-00001826]Climate Measurement Around the King Sejong Station, Antarctica in 2021 2021-10-05
349 [KOPRI-KPDC-00001825]Turbulent flux at the King Sejong station in 2021 2021-10-05
350 [KOPRI-KPDC-00001824]Horizontal global radiation data at King Sejong Station in the Antarctic, 2021 2021-10-05
351 [KOPRI-KPDC-00001823]Weather Data of Coldest Cases of the King Sejong Station, Antarctica 2021-10-05
352 [KOPRI-ROCK-00002159]J-45-2 2021-09-30
353 [KOPRI-ROCK-00002158]J-45-1 2021-09-30
354 [KOPRI-ROCK-00002157]J-58 2021-09-30
355 [KOPRI-ROCK-00002156]SB171130-1 2021-09-30
356 [KOPRI-ROCK-00002155]SB171127-4D 2021-09-30
357 [KOPRI-ROCK-00002154]SB171127-4C 2021-09-30
358 [KOPRI-ROCK-00002153]SB171127-5 2021-09-30
359 [KOPRI-ROCK-00002152]SB171127-4B 2021-09-30
360 [KOPRI-ROCK-00002151]SB171127-4A 2021-09-30
361 [KOPRI-ROCK-00002150]SB171127-3 2021-09-30
362 [KOPRI-ROCK-00002149]SB171127-2E 2021-09-30
363 [KOPRI-ROCK-00002148]SB171127-2D 2021-09-30
364 [KOPRI-ROCK-00002147]SB171127-2C 2021-09-30
365 [KOPRI-ROCK-00002146]SB171127-2B 2021-09-30
366 [KOPRI-ROCK-00002145]SB171127-2A 2021-09-30
367 [KOPRI-ROCK-00002144]SB171127-1E 2021-09-30
368 [KOPRI-ROCK-00002143]SB171127-1D 2021-09-30
369 [KOPRI-ROCK-00002142]SB171127-1C 2021-09-30
370 [KOPRI-ROCK-00002141]SB171127-1B 2021-09-30
371 [KOPRI-ROCK-00002140]SB171127-1A 2021-09-30
372 [KOPRI-KPDC-00001795]Ship-borne radiosonde observation data over the Arctic Ocean in the 2021 Araon summer expedition(ARA12A) 2021-09-30
373 [KOPRI-KPDC-00001794]Ship-borne radiosonde observation data over the Arctic Ocean in the 2021 Araon summer expedition(ARA12B,ARA12C) 2021-09-30
374 [KOPRI-KPDC-00001788]Genome information of pathogenic fungi isolated from diseased plants identified in KGI, Antarctic Peninsula 2021-09-30
375 [KOPRI-KPDC-00001787]Cryo-Raman microscope image of ice grain boundaries in the present of cryoprotectant 2021-09-29
376 [KOPRI-KPDC-00001786]Cryo-Raman chemical mapping image of peroxymonosulfate 2021-09-29
377 [KOPRI-KPDC-00001785]Cryo-Raman chemical mapping image of organic pollutants in frozen solution 2021-09-29
378 [KOPRI-KPDC-00001784]HPLC-MS data of 4-chlorophenol decomposition experiment in ice 2021-09-29
379 [KOPRI-KPDC-00001783]ICP-OES analysis data of mineral formation experiment in ice 2021-09-29
380 [KOPRI-KPDC-00001782]Ion chromatography data of freezing/thawing experiment 2021-09-29
381 [KOPRI-KPDC-00001774]Weddell Seal hair sample (196296) 2021-09-28
382 [KOPRI-KPDC-00001772]Weddell Seal hair sample (196290) 2021-09-28
383 [KOPRI-KPDC-00001771]Weddell Seal hair sample (196295) 2021-09-28
384 [KOPRI-KPDC-00001770]Weddell Seal hair sample (196294) 2021-09-28
385 [KOPRI-KPDC-00001769]Weddell Seal hair sample (196293) 2021-09-28
386 [KOPRI-KPDC-00001768]Weddell Seal hair sample (196292) 2021-09-28
387 [KOPRI-KPDC-00001767]Weddell Seal hair sample (196291) 2021-09-28
388 [KOPRI-KPDC-00001766]Weddell Seal hair sample (196297) 2021-09-28
389 [KOPRI-KPDC-00001765]Weddell Seal hair sample (196298) 2021-09-28
390 [KOPRI-KPDC-00001764]Weddell Seal placental sample (JBG201101-PL) 2021-09-28
391 [KOPRI-KPDC-00001763]Weddell Seal placental sample (JBG201106-PL) 2021-09-28
392 [KOPRI-KPDC-00001762]Weddell Seal amniotic fluid sample (JBG201106-AF) 2021-09-28
393 [KOPRI-KPDC-00001761]Weddell Seal amniotic fluid sample (JBG201101-AF) 2021-09-28
394 [KOPRI-KPDC-00001760]Weddell Seal blood sample (JBG200925-1) 2021-09-28
395 [KOPRI-KPDC-00001759]Weddell Seal blood sample (JBG200925-2) 2021-09-28
396 [KOPRI-KPDC-00001758]Weddell Seal blood sample (JBG200925-3) 2021-09-28
397 [KOPRI-KPDC-00001757]Weddell Seal blood sample (JBG200925-6) 2021-09-28
398 [KOPRI-KPDC-00001756]Weddell Seal fecal sample (83543) 2021-09-28
399 [KOPRI-KPDC-00001755]Weddell Seal fecal sample (196290) 2021-09-28
400 [KOPRI-KPDC-00001754]Weddell Seal fecal sample (196295) 2021-09-28